Map

Track Data

SID SEASON NUMBER BASIN SUBBASIN NAME ISO_TIME NATURE LAT LON WMO_WIND WMO_PRES WMO_AGENCY TRACK_TYPE DIST2LAND LANDFALL IFLAG USA_AGENCY USA_ATCF_ID USA_LAT USA_LON USA_RECORD USA_STATUS USA_WIND USA_PRES USA_SSHS USA_R34_NE USA_R34_SE USA_R34_SW USA_R34_NW USA_R50_NE USA_R50_SE USA_R50_SW USA_R50_NW USA_R64_NE USA_R64_SE USA_R64_SW USA_R64_NW USA_POCI USA_ROCI USA_RMW USA_EYE TOKYO_LAT TOKYO_LON TOKYO_GRADE TOKYO_WIND TOKYO_PRES TOKYO_R50_DIR TOKYO_R50_LONG TOKYO_R50_SHORT TOKYO_R30_DIR TOKYO_R30_LONG TOKYO_R30_SHORT TOKYO_LAND CMA_LAT CMA_LON CMA_CAT CMA_WIND CMA_PRES HKO_LAT HKO_LON HKO_CAT HKO_WIND HKO_PRES NEWDELHI_LAT NEWDELHI_LON NEWDELHI_GRADE NEWDELHI_WIND NEWDELHI_PRES NEWDELHI_CI NEWDELHI_DP NEWDELHI_POCI REUNION_LAT REUNION_LON REUNION_TYPE REUNION_WIND REUNION_PRES REUNION_TNUM REUNION_CI REUNION_RMW REUNION_R34_NE REUNION_R34_SE REUNION_R34_SW REUNION_R34_NW REUNION_R50_NE REUNION_R50_SE REUNION_R50_SW REUNION_R50_NW REUNION_R64_NE REUNION_R64_SE REUNION_R64_SW REUNION_R64_NW BOM_LAT BOM_LON BOM_TYPE BOM_WIND BOM_PRES BOM_TNUM BOM_CI BOM_RMW BOM_R34_NE BOM_R34_SE BOM_R34_SW BOM_R34_NW BOM_R50_NE BOM_R50_SE BOM_R50_SW BOM_R50_NW BOM_R64_NE BOM_R64_SE BOM_R64_SW BOM_R64_NW BOM_ROCI BOM_POCI BOM_EYE BOM_POS_METHOD BOM_PRES_METHOD NADI_LAT NADI_LON NADI_CAT NADI_WIND NADI_PRES WELLINGTON_LAT WELLINGTON_LON WELLINGTON_WIND WELLINGTON_PRES DS824_LAT DS824_LON DS824_STAGE DS824_WIND DS824_PRES TD9636_LAT TD9636_LON TD9636_STAGE TD9636_WIND TD9636_PRES TD9635_LAT TD9635_LON TD9635_WIND TD9635_PRES TD9635_ROCI NEUMANN_LAT NEUMANN_LON NEUMANN_CLASS NEUMANN_WIND NEUMANN_PRES MLC_LAT MLC_LON MLC_CLASS MLC_WIND MLC_PRES USA_GUST BOM_GUST BOM_GUST_PER REUNION_GUST REUNION_GUST_PER USA_SEAHGT USA_SEARAD_NE USA_SEARAD_SE USA_SEARAD_SW USA_SEARAD_NW STORM_SPEED STORM_DIR
1923270N19131 1923 65 WP MM NOT_NAMED 1923-09-26 22:00:00 NR 19.4000 130.600 main 880 850 __________O___ -1 19.4000 130.600 7 8 300
1923270N19131 1923 65 WP MM NOT_NAMED 1923-09-27 00:00:00 NR 19.5418 130.344 main 850 822 __________P___ -1 19.5418 130.344 7 8 301
1923270N19131 1923 65 WP MM NOT_NAMED 1923-09-27 03:00:00 NR 19.7573 129.962 main 824 784 __________P___ -1 19.7573 129.962 7 8 302
1923270N19131 1923 65 WP MM NOT_NAMED 1923-09-27 06:00:00 NR 19.9807 129.585 main 787 751 __________P___ -1 19.9807 129.585 7 8 303
1923270N19131 1923 65 WP MM NOT_NAMED 1923-09-27 09:00:00 NR 20.2173 129.219 main 751 744 __________P___ -1 20.2173 129.219 7 8 305
1923270N19131 1923 65 WP MM NOT_NAMED 1923-09-27 10:00:00 NR 20.3000 129.100 main 744 727 __________O___ -1 20.3000 129.100 7 8 308
1923270N19131 1923 65 WP MM NOT_NAMED 1923-09-27 12:00:00 NR 20.4713 128.867 main 730 698 __________P___ -1 20.4713 128.867 7 8 309
1923270N19131 1923 65 WP MM NOT_NAMED 1923-09-27 15:00:00 NR 20.7351 128.537 main 698 682 __________P___ -1 20.7351 128.537 7 8 311
1923270N19131 1923 65 WP MM NOT_NAMED 1923-09-27 18:00:00 NR 20.9928 128.237 main 682 673 __________P___ -1 20.9928 128.237 7 7 313
1923270N19131 1923 65 WP MM NOT_NAMED 1923-09-27 21:00:00 NR 21.2288 127.976 main 673 669 __________P___ -1 21.2288 127.976 7 7 314
1923270N19131 1923 65 WP MM NOT_NAMED 1923-09-27 22:00:00 NR 21.3000 127.900 main 669 665 __________O___ -1 21.3000 127.900 7 5 313
1923270N19131 1923 65 WP MM NOT_NAMED 1923-09-28 00:00:00 NR 21.4173 127.765 main 665 653 __________P___ -1 21.4173 127.765 7 5 314
1923270N19131 1923 65 WP MM NOT_NAMED 1923-09-28 03:00:00 NR 21.5682 127.601 main 659 646 __________P___ -1 21.5682 127.601 7 4 316
1923270N19131 1923 65 WP MM NOT_NAMED 1923-09-28 06:00:00 NR 21.7056 127.467 main 646 623 __________P___ -1 21.7056 127.467 7 4 319
1923270N19131 1923 65 WP MM NOT_NAMED 1923-09-28 09:00:00 NR 21.8481 127.342 main 623 620 __________P___ -1 21.8481 127.342 7 4 322
1923270N19131 1923 65 WP MM NOT_NAMED 1923-09-28 10:00:00 NR 21.9000 127.300 main 620 607 __________O___ -1 21.9000 127.300 7 4 322
1923270N19131 1923 65 WP MM NOT_NAMED 1923-09-28 12:00:00 NR 22.0245 127.197 main 607 580 __________P___ -1 22.0245 127.197 7 5 324
1923270N19131 1923 65 WP MM NOT_NAMED 1923-09-28 15:00:00 NR 22.2240 127.043 main 580 561 __________P___ -1 22.2240 127.043 7 5 325
1923270N19131 1923 65 WP MM NOT_NAMED 1923-09-28 18:00:00 NR 22.4304 126.892 main 561 533 __________P___ -1 22.4304 126.892 7 5 326
1923270N19131 1923 65 WP MM NOT_NAMED 1923-09-28 21:00:00 NR 22.6342 126.747 main 533 528 __________P___ -1 22.6342 126.747 7 5 327
1923270N19131 1923 65 WP MM NOT_NAMED 1923-09-28 22:00:00 NR 22.7000 126.700 main 528 514 __________O___ -1 22.7000 126.700 7 5 325
1923270N19131 1923 65 WP MM NOT_NAMED 1923-09-29 00:00:00 NR 22.8224 126.606 main 514 497 __________P___ -1 22.8224 126.606 7 4 325
1923270N19131 1923 65 WP MM NOT_NAMED 1923-09-29 03:00:00 NR 22.9996 126.470 main 497 470 __________P___ -1 22.9996 126.470 7 4 326
1923270N19131 1923 65 WP MM NOT_NAMED 1923-09-29 06:00:00 NR 23.1721 126.345 main 470 456 __________P___ -1 23.1721 126.345 7 4 328
1923270N19131 1923 65 WP MM NOT_NAMED 1923-09-29 09:00:00 NR 23.3429 126.234 main 456 453 __________P___ -1 23.3429 126.234 7 4 330
1923270N19131 1923 65 WP MM NOT_NAMED 1923-09-29 10:00:00 NR 23.4000 126.200 main 453 440 __________O___ -1 23.4000 126.200 7 4 332
1923270N19131 1923 65 WP MM NOT_NAMED 1923-09-29 12:00:00 NR 23.5140 126.141 main 440 435 __________P___ -1 23.5140 126.141 7 4 336
1923270N19131 1923 65 WP MM NOT_NAMED 1923-09-29 15:00:00 NR 23.6850 126.065 main 435 420 __________P___ -1 23.6850 126.065 7 4 339
1923270N19131 1923 65 WP MM NOT_NAMED 1923-09-29 18:00:00 NR 23.8587 125.997 main 420 409 __________P___ -1 23.8587 125.997 7 4 340
1923270N19131 1923 65 WP MM NOT_NAMED 1923-09-29 21:00:00 NR 24.0383 125.926 main 409 406 __________P___ -1 24.0383 125.926 7 4 340
1923270N19131 1923 65 WP MM NOT_NAMED 1923-09-29 22:00:00 NR 24.1000 125.900 main 406 394 __________O___ -1 24.1000 125.900 3 4 339
1923270N19131 1923 65 WP MM NOT_NAMED 1923-09-30 00:00:00 NR 24.2302 125.847 main 394 389 __________P___ -1 24.2302 125.847 3 4 340
1923270N19131 1923 65 WP MM NOT_NAMED 1923-09-30 03:00:00 NR 24.4319 125.761 main 389 375 __________P___ -1 24.4319 125.761 3 4 338
1923270N19131 1923 65 WP MM NOT_NAMED 1923-09-30 06:00:00 NR 24.6357 125.662 main 375 353 __________P___ -1 24.6357 125.662 3 5 334
1923270N19131 1923 65 WP MM NOT_NAMED 1923-09-30 09:00:00 NR 24.8354 125.545 main 353 352 __________P___ -1 24.8354 125.545 3 5 330
1923270N19131 1923 65 WP MM NOT_NAMED 1923-09-30 10:00:00 NR 24.9000 125.500 main 352 342 __________O___ -1 24.9000 125.500 4 5 329
1923270N19131 1923 65 WP MM NOT_NAMED 1923-09-30 12:00:00 NR 25.0354 125.416 main 342 332 __________P___ -1 25.0354 125.416 4 5 328
1923270N19131 1923 65 WP MM NOT_NAMED 1923-09-30 15:00:00 NR 25.2324 125.272 main 332 314 __________P___ -1 25.2324 125.272 4 5 323
1923270N19131 1923 65 WP MM NOT_NAMED 1923-09-30 18:00:00 NR 25.4112 125.097 main 314 296 __________P___ -1 25.4112 125.097 4 5 313
1923270N19131 1923 65 WP MM NOT_NAMED 1923-09-30 21:00:00 NR 25.5595 124.882 main 298 289 __________P___ -1 25.5595 124.882 4 5 305
1923270N19131 1923 65 WP MM NOT_NAMED 1923-09-30 22:00:00 NR 25.6000 124.800 main 289 272 __________O___ -1 25.6000 124.800 4 5 295
1923270N19131 1923 65 WP MM NOT_NAMED 1923-10-01 00:00:00 NR 25.6699 124.618 main 272 243 __________P___ -1 25.6699 124.618 4 6 288
1923270N19131 1923 65 WP MM NOT_NAMED 1923-10-01 03:00:00 NR 25.7432 124.306 main 243 219 __________P___ -1 25.7432 124.306 4 6 281
1923270N19131 1923 65 WP MM NOT_NAMED 1923-10-01 06:00:00 NR 25.7843 123.966 main 219 183 __________P___ -1 25.7843 123.966 4 6 275
1923270N19131 1923 65 WP MM NOT_NAMED 1923-10-01 09:00:00 NR 25.7996 123.616 main 183 175 __________P___ -1 25.7996 123.616 4 6 272
1923270N19131 1923 65 WP MM NOT_NAMED 1923-10-01 10:00:00 NR 25.8000 123.500 main 175 158 __________O___ -1 25.8000 123.500 4 6 272
1923270N19131 1923 65 WP MM NOT_NAMED 1923-10-01 12:00:00 NR 25.8103 123.307 main 158 134 __________P___ -1 25.8103 123.307 4 5 271
1923270N19131 1923 65 WP MM NOT_NAMED 1923-10-01 15:00:00 NR 25.8074 123.018 main 134 113 __________P___ -1 25.8074 123.018 4 5 267
1923270N19131 1923 65 WP MM NOT_NAMED 1923-10-01 18:00:00 NR 25.7799 122.705 main 113 83 __________P___ -1 25.7799 122.705 4 6 262
1923270N19131 1923 65 WP MM NOT_NAMED 1923-10-01 21:00:00 NR 25.7250 122.339 main 83 80 __________P___ -1 25.7250 122.339 4 7 260
1923270N19131 1923 65 WP MM NOT_NAMED 1923-10-01 22:00:00 NR 25.7000 122.200 main 80 53 __________O___ -1 25.7000 122.200 4 9 259
1923270N19131 1923 65 WP MM NOT_NAMED 1923-10-02 00:00:00 NR 25.6427 121.871 main 53 33 __________P___ -1 25.6427 121.871 4 10 258
1923270N19131 1923 65 WP MM NOT_NAMED 1923-10-02 03:00:00 NR 25.5314 121.321 main 34 34 __________P___ -1 25.5314 121.321 4 10 256
1923270N19131 1923 65 WP MM NOT_NAMED 1923-10-02 06:00:00 NR 25.3973 120.742 main 53 51 __________P___ -1 25.3973 120.742 4 11 255
1923270N19131 1923 65 WP MM NOT_NAMED 1923-10-02 09:00:00 NR 25.2502 120.178 main 51 37 __________P___ -1 25.2502 120.178 4 10 254
1923270N19131 1923 65 WP MM NOT_NAMED 1923-10-02 10:00:00 NR 25.2000 120.000 main 37 24 __________O___ -1 25.2000 120.000 4 10 252
1923270N19131 1923 65 WP MM NOT_NAMED 1923-10-02 12:00:00 NR 25.0996 119.668 main 24 11 __________P___ -1 25.0996 119.668 4 9 251
1923270N19131 1923 65 WP MM NOT_NAMED 1923-10-02 15:00:00 NR 24.9496 119.217 main 22 10 __________P___ -1 24.9496 119.217 4 8 249
1923270N19131 1923 65 WP MM NOT_NAMED 1923-10-02 18:00:00 NR 24.7998 118.809 main 11 0 __________P___ -1 24.7998 118.809 4 8 247
1923270N19131 1923 65 WP MM NOT_NAMED 1923-10-02 21:00:00 NR 24.6501 118.426 main 0 0 __________P___ -1 24.6501 118.426 4 8 247
1923270N19131 1923 65 WP MM NOT_NAMED 1923-10-02 22:00:00 NR 24.6000 118.300 main 0 __________O___ -1 24.6000 118.300 4 7 246

Digital Typhoon Data and Search

About IBTrACS Database

This database is a web-friendly format of International Best Track Archive for Climate Stewardship (IBTrACS), a global best track data archive curated by NOAA dating back to 1842.

Updated: 2021-10-21